Latest Coastal Weather Observations for Cape Grim

IDT60701

Issued at 5:52 am EDT Wednesday 28 January 2015 (issued every 10 minutes, with the page automatically refreshed every 10 minutes)

About coastal observations | Map of coastal stations | Coastal observations for TAS | Marine services | Other Formats
Station Details ID: 091331 Name: CAPE GRIM Lat: -40.68 Lon: 144.69 Height: 86.0 m
Data from the previous 72 hours. | See also: Recent months at Cape Grim
Date/Time
EDT
Temp

°C
Wind Pressure Rain
since 9am
mm
Weather Cloud Vis
km
Sea
Height
m
Swell
Dir
 
Speed
knots
Gust
knots
hPa Trend Height
m
Period
s
Dir
28/05:30am 11.1 SE 12 14 1019.7 - 0.0 - Partly cloudy - - - - -
28/05:00am 11.1 SE 12 14 1019.5 - 0.0 - - - - - - -
28/04:30am 11.3 SE 11 13 1019.4 - 0.0 - - - - - - -
28/04:00am 11.7 SE 12 14 1019.4 - 0.0 - Partly cloudy - - - - -
28/03:30am 10.8 SE 13 15 1019.4 - 0.0 - - - - - - -
28/03:00am 10.8 ESE 13 15 1019.3 - 0.0 - - - - - - -
28/02:30am 11.2 SE 15 18 1019.3 - 0.0 - - - - - - -
28/02:00am 12.1 SE 13 19 1019.4 - 0.0 - Partly cloudy - - - - -
28/01:30am 11.8 SSE 12 17 1019.5 - 0.0 - - - - - - -
28/01:00am 11.7 SSE 12 16 1019.3 - 0.0 - - - - - - -
28/12:30am 11.8 SSE 13 20 1019.3 - 0.0 - - - - - - -
28/12:00am 12.0 S 15 21 1019.1 - 0.0 - - - - - - -
 
Date/Time
EDT
Temp

°C
Wind Pressure Rain
since 9am
mm
Weather Cloud Vis
km
Sea
Height
m
Swell
Dir
 
Speed
knots
Gust
knots
hPa Trend Height
m
Period
s
Dir
27/11:30pm 12.5 S 17 23 1018.9 - 0.0 - - - - - - -
27/11:03pm 12.8 S 17 27 1018.8 - 0.0 - - - - - - -
27/11:00pm 12.8 S 19 27 1018.7 - 0.0 - - - - - - -
27/10:48pm 12.8 S 19 31 1018.6 - 0.0 - - - - - - -
27/10:30pm 13.0 S 19 26 1018.6 - 0.0 - - - - - - -
27/10:00pm 13.4 SSW 21 30 1018.5 - 0.0 - - - - - - -
27/09:30pm 13.6 SSW 22 32 1018.4 - 0.0 - - - - - - -
27/09:08pm 13.7 SSW 21 33 1018.1 - 0.0 - - - - - - -
27/09:00pm 13.8 SSW 23 30 1018.1 - 0.0 - - - - - - -
27/08:30pm 14.1 SSW 26 34 1017.9 - 0.0 - - - - - - -
27/08:14pm 14.3 SSW 25 36 1017.7 - 0.0 - - - - - - -
27/08:00pm 14.3 SSW 26 33 1017.6 - 0.0 - - - - - - -
27/07:30pm 14.6 SSW 24 32 1017.5 - 0.0 - - - - - - -
27/07:00pm 14.8 SSW 24 34 1017.3 - 0.0 - - - - - - -
27/06:41pm 15.0 SSW 23 33 1017.4 - 0.0 - - - - - - -
27/06:30pm 15.0 SSW 25 33 1017.3 - 0.0 - - - - - - -
27/06:07pm 15.1 SSW 22 32 1017.2 - 0.0 - - - - - - -
27/06:00pm 15.3 SSW 23 32 1017.2 - 0.0 - - - - - - -
27/05:30pm 15.5 SSW 21 29 1017.4 - 0.0 - - - - - - -
27/05:07pm 15.5 SSW 21 31 1017.3 - 0.0 - - - - - - -
27/05:00pm 15.5 SSW 22 29 1017.3 - 0.0 - - - - - - -
27/04:30pm 15.6 SSW 22 29 1017.3 - 0.0 - - - - - - -
27/04:00pm 15.8 SW 21 28 1017.4 - 0.0 - - - - - - -
27/03:30pm 15.6 SW 22 29 1017.6 - 0.0 - - - - - - -
27/03:00pm 15.5 SW 19 26 1017.6 - 0.0 - - - - - - -
27/02:30pm 15.8 SW 19 24 1017.7 - 0.0 - - - - - - -
27/02:00pm 15.9 SW 19 27 1017.8 - 0.0 - - - - - - -
27/01:30pm 15.5 SW 18 24 1018.1 - 0.0 - - - - - - -
27/01:00pm 15.8 SSW 17 23 1018.1 - 0.0 - Partly cloudy - - - - -
27/12:30pm 15.1 SSW 16 22 1018.4 - 0.0 - Cloudy - - - - -
27/12:00pm 14.8 SW 15 22 1018.4 - 0.0 - Mostly cloudy - - - - -
27/11:30am 13.3 SW 23 29 1018.4 - 0.0 - Partly cloudy - - - - -
27/11:10am 14.7 SW 16 26 1018.3 - 0.0 - Cloudy - - - - -
27/11:00am 15.2 SW 16 21 1018.3 - 0.0 - Partly cloudy - - - - -
27/10:30am 15.1 SW 14 20 1018.3 - 0.0 - Partly cloudy - - - - -
27/10:00am 14.8 SW 13 19 1018.3 - 0.0 - Partly cloudy - - - - -
27/09:30am 14.9 SW 13 18 1018.1 - 0.0 - Partly cloudy - - - - -
27/09:00am 14.7 SSW 12 15 1017.9 - 0.2 - Cloudy - - - - -
27/08:30am 14.0 SW 13 16 1017.8 - 0.2 - Partly cloudy - - - - -
27/08:00am 14.0 SSW 13 17 1017.6 - 0.2 - Partly cloudy - - - - -
27/07:30am 13.6 SSW 12 17 1017.4 - 0.2 - Partly cloudy - - - - -
27/07:00am 12.6 SSW 8 11 1017.2 - 0.2 - Partly cloudy - - - - -
27/06:30am 12.3 S 9 12 1017.1 - 0.2 - Partly cloudy - - - - -
27/06:00am 11.9 S 8 11 1016.8 - 0.2 - Partly cloudy - - - - -
27/05:30am 12.0 S 7 9 1016.5 - 0.2 - Cloudy - - - - -
27/05:00am 12.1 S 9 11 1016.5 - 0.2 - Cloudy - - - - -
27/04:30am 12.7 S 9 16 1016.6 - 0.2 - Partly cloudy - - - - -
27/04:00am 13.2 SSW 13 17 1016.7 - 0.2 - Partly cloudy - - - - -
27/03:30am 13.1 SW 16 19 1017.1 - 0.2 - Partly cloudy - - - - -
27/03:00am 12.9 SW 13 17 1017.2 - 0.2 - Mostly clear - - - - -
27/02:30am 13.1 SW 15 18 1017.3 - 0.2 - Partly cloudy - - - - -
27/02:00am 13.2 SW 12 16 1017.4 - 0.2 - Partly cloudy - - - - -
27/01:30am 13.0 SW 12 18 1017.5 - 0.2 - Partly cloudy - - - - -
27/01:00am 13.3 SW 11 15 1017.7 - 0.2 - Partly cloudy - - - - -
27/12:30am 13.1 SW 12 16 1017.7 - 0.2 - Partly cloudy - - - - -
27/12:00am 13.2 SW 11 15 1017.8 - 0.2 - Cloudy - - - - -
 
Date/Time
EDT
Temp

°C
Wind Pressure Rain
since 9am
mm
Weather Cloud Vis
km
Sea
Height
m
Swell
Dir
 
Speed
knots
Gust
knots
hPa Trend Height
m
Period
s
Dir
26/11:30pm 13.2 SW 12 17 1017.9 - 0.2 - Partly cloudy - - - - -
26/11:00pm 13.2 SW 13 17 1018.0 - 0.2 - Partly cloudy - - - - -
26/10:30pm 13.1 SW 11 15 1018.2 - 0.2 - - - - - - -
26/10:00pm 13.0 SW 11 15 1018.0 - 0.2 - Partly cloudy - - - - -
26/09:30pm 13.0 SSW 11 15 1017.8 - 0.2 - Partly cloudy - - - - -
26/09:00pm 13.0 SW 14 17 1017.6 - 0.2 - Mostly clear - - - - -
26/08:30pm 13.2 SW 12 16 1017.4 - 0.2 - Partly cloudy - - - - -
26/08:00pm 13.5 SW 13 19 1017.2 - 0.2 - Partly cloudy - - - - -
26/07:30pm 14.3 SW 14 19 1016.8 - 0.2 - Partly cloudy - - - - -
26/07:00pm 14.7 SW 15 19 1016.6 - 0.2 - - - - - - -
26/06:30pm 14.7 SW 17 20 1016.5 - 0.2 - - - - - - -
26/06:00pm 14.8 SW 18 21 1016.5 - 0.2 - - - - - - -
26/05:30pm 15.4 SW 16 21 1016.5 - 0.2 - - - - - - -
26/05:00pm 15.4 SW 17 23 1016.5 - 0.2 - - - - - - -
26/04:30pm 15.5 SW 19 23 1016.7 - 0.2 - - - - - - -
26/04:00pm 16.0 SW 19 24 1016.6 - 0.2 - Partly cloudy - - - - -
26/03:30pm 15.3 SW 17 23 1016.8 - 0.2 - Partly cloudy - - - - -
26/03:00pm 15.5 SW 19 25 1016.7 - 0.2 - - - - - - -
26/02:30pm 16.0 SW 18 23 1016.6 - 0.2 - - - - - - -
26/02:00pm 15.3 SW 19 24 1016.7 - 0.2 - - - - - - -
26/01:30pm 15.4 SW 18 24 1016.9 - 0.2 - - - - - - -
26/01:00pm 15.3 SW 18 24 1016.9 - 0.2 - Partly cloudy - - - - -
26/12:30pm 15.5 SW 19 23 1016.8 - 0.2 - Partly cloudy - - - - -
26/12:00pm 14.4 SW 19 24 1016.9 - 0.2 Recent precip. Cloudy - - - - -
26/11:30am 14.3 SW 17 23 1016.6 - 0.2 - Partly cloudy - - - - -
26/11:00am 14.4 SW 18 23 1016.5 - 0.0 - Partly cloudy - - - - -
26/10:30am 14.6 SW 17 24 1016.4 - 0.0 - Partly cloudy - - - - -
26/10:00am 13.8 SW 18 23 1016.1 - 0.0 - Partly cloudy - - - - -
26/09:30am 13.8 SW 15 23 1015.8 - 0.0 - Partly cloudy - - - - -
26/09:00am 13.3 WSW 14 19 1015.4 - 0.8 - Mostly clear - - - - -
26/08:30am 13.6 SW 17 23 1015.2 - 0.8 - Partly cloudy - - - - -
26/08:00am 13.0 SW 14 24 1014.7 - 0.8 - Partly cloudy - - - - -
26/07:30am 12.9 SW 14 21 1014.4 - 0.8 - - - - - - -
26/07:00am 12.7 SW 17 26 1013.8 - 0.8 - Partly cloudy - - - - -
26/06:30am 12.3 SW 17 30 1013.5 - 0.8 - Partly cloudy - - - - -
26/06:00am 11.4 SW 14 24 1013.2 - 0.8 Recent precip. Cloudy - - - - -
26/05:30am 11.5 SW 19 30 1012.8 - 0.8 - Partly cloudy - - - - -
26/05:28am 11.7 SW 19 30 1012.8 - 0.8 - Partly cloudy - - - - -
26/05:00am 13.0 SW 17 23 1012.2 - 0.6 - Partly cloudy - - - - -
26/04:51am 12.8 SW 17 27 1012.2 - 0.6 - - - - - - -
26/04:30am 12.7 SW 19 26 1011.9 - 0.6 - Partly cloudy - - - - -
26/04:04am 12.6 SW 17 27 1011.7 - 0.6 - Partly cloudy - - - - -
26/04:00am 12.6 SW 18 25 1011.7 - 0.6 - Partly cloudy - - - - -
26/03:30am 12.0 SW 27 35 1011.5 - 0.6 - Partly cloudy - - - - -
26/03:20am 12.7 SW 22 35 1011.4 - 0.6 - Partly cloudy - - - - -
26/03:17am 13.2 SW 19 29 1011.3 - 0.6 - Partly cloudy - - - - -
26/03:00am 13.0 SW 19 27 1011.4 - 0.6 - Partly cloudy - - - - -
26/02:32am 13.1 SW 21 31 1011.0 - 0.6 - - - - - - -
26/02:30am 13.1 SW 21 29 1010.9 - 0.6 - - - - - - -
26/02:05am 13.1 SW 21 31 1010.7 - 0.6 - Partly cloudy - - - - -
26/02:00am 13.0 SW 22 29 1010.7 - 0.6 - Partly cloudy - - - - -
26/01:34am 13.2 SW 20 30 1010.7 - 0.6 - Partly cloudy - - - - -
26/01:30am 13.2 SW 19 28 1010.7 - 0.6 - Partly cloudy - - - - -
26/01:07am 12.9 WSW 15 27 1010.7 - 0.6 - Partly cloudy - - - - -
26/01:00am 12.9 WSW 14 27 1010.7 - 0.6 - Partly cloudy - - - - -
26/12:31am 12.8 WSW 18 28 1010.5 - 0.6 - Partly cloudy - - - - -
26/12:30am 12.9 WSW 19 28 1010.5 - 0.6 - Partly cloudy - - - - -
26/12:13am 13.0 SW 19 29 1010.4 - 0.6 - Partly cloudy - - - - -
26/12:00am 13.2 SW 20 28 1010.5 - 0.6 - Mostly clear - - - - -
 
Date/Time
EDT
Temp

°C
Wind Pressure Rain
since 9am
mm
Weather Cloud Vis
km
Sea
Height
m
Swell
Dir
 
Speed
knots
Gust
knots
hPa Trend Height
m
Period
s
Dir
25/11:30pm 13.1 SW 18 29 1010.4 - 0.6 - Partly cloudy - - - - -
25/11:00pm 13.1 WSW 15 28 1010.2 - 0.6 - Partly cloudy - - - - -
25/10:30pm 13.1 WSW 16 27 1010.0 - 0.6 - Partly cloudy - - - - -
25/10:02pm 13.1 WSW 15 29 1009.8 - 0.6 - Partly cloudy - - - - -
25/10:00pm 13.2 WSW 14 24 1009.8 - 0.6 - Partly cloudy - - - - -
25/09:30pm 12.9 WSW 15 28 1009.5 - 0.6 - Partly cloudy - - - - -
25/09:00pm 12.9 WSW 15 30 1009.2 - 0.6 - Mostly clear - - - - -
25/08:30pm 12.9 WSW 18 30 1008.8 - 0.6 - - - - - - -
25/08:00pm 13.2 WSW 17 33 1008.3 - 0.6 - Partly cloudy - - - - -
25/07:30pm 13.4 WSW 19 32 1007.9 - 0.6 - Partly cloudy - - - - -
25/07:00pm 13.3 WSW 20 34 1007.5 - 0.6 - - - - - - -
25/06:46pm 13.5 WSW 20 34 1007.2 - 0.6 - Partly cloudy - - - - -
25/06:30pm 13.6 W 21 34 1007.0 - 0.6 - Partly cloudy - - - - -
25/06:00pm 13.9 W 20 35 1006.6 - 0.6 - Mostly clear - - - - -
25/05:30pm 13.5 W 19 37 1006.4 - 0.6 - Partly cloudy - - - - -
25/05:00pm 13.8 W 19 29 1006.1 - 0.6 - Partly cloudy - - - - -
25/04:37pm 13.5 W 21 32 1006.0 - 0.6 - Partly cloudy - - - - -
25/04:30pm 13.8 W 21 29 1005.9 - 0.6 - Partly cloudy - - - - -
25/04:00pm 14.0 W 23 36 1005.6 - 0.6 - - - - - - -
25/03:30pm 14.2 W 20 32 1005.3 - 0.6 - Partly cloudy - - - - -
25/03:00pm 13.7 W 21 31 1005.3 - 0.6 - Mostly clear - - - - -
25/02:30pm 13.9 W 18 29 1005.3 - 0.6 - Partly cloudy - - - - -
25/02:00pm 13.0 W 17 27 1005.0 - 0.6 - Partly cloudy - - - - -
25/01:30pm 11.8 WSW 19 30 1005.0 - 0.6 - Partly cloudy - - - - -
25/01:12pm 11.7 W 25 48 1004.5 - 0.0 - Partly cloudy - - - - -
25/01:04pm 14.0 W 21 32 1004.5 - 0.0 - Partly cloudy - - - - -
25/01:00pm 13.8 W 20 29 1004.5 - 0.0 - Partly cloudy - - - - -
25/12:31pm 14.3 W 20 30 1004.3 - 0.0 - Partly cloudy - - - - -
25/12:30pm 14.4 W 21 30 1004.2 - 0.0 - Partly cloudy - - - - -
25/12:06pm 13.6 W 19 29 1004.0 - 0.0 - Partly cloudy - - - - -
25/12:00pm 13.4 W 19 26 1004.0 - 0.0 - Cloudy - - - - -
25/11:30am 13.9 W 15 26 1003.8 - 0.0 - Partly cloudy - - - - -
25/11:00am 14.0 W 17 27 1003.5 - 0.0 - Partly cloudy - - - - -
25/10:30am 13.6 W 16 26 1003.3 - 0.0 - Partly cloudy - - - - -
25/10:00am 13.8 W 18 29 1003.2 - 0.0 - Partly cloudy - - - - -
25/09:51am 13.7 W 16 26 1003.1 - 0.0 - Partly cloudy - - - - -
25/09:30am 13.2 W 15 22 1003.2 - 0.0 - Partly cloudy - - - - -
25/09:00am 13.5 WSW 15 26 1002.8 - 12.6 - Mostly cloudy - - - - -
25/08:30am 13.3 WSW 15 26 1002.5 - 12.6 - Partly cloudy - - - - -
25/08:05am 13.7 W 17 27 1002.2 - 12.6 - Partly cloudy - - - - -
25/08:00am 13.4 W 17 26 1002.1 - 12.6 - Partly cloudy - - - - -
25/07:54am 13.4 W 16 26 1002.1 - 12.6 - Partly cloudy - - - - -
25/07:30am 13.3 WSW 15 23 1001.8 - 12.6 - Partly cloudy - - - - -
25/07:00am 13.4 WSW 16 32 1001.5 - 12.6 - Partly cloudy - - - - -
25/06:30am 13.5 WSW 15 27 1001.2 - 12.6 - Partly cloudy - - - - -
25/06:00am 13.4 SW 18 28 1000.6 - 12.6 - Mostly cloudy - - - - -

Other Formats:

Comma delimited format used in spreadsheet applications
http://www.bom.gov.au/fwo/IDT60701/IDT60701.95954.axf

JavaScript Object Notation format (JSON) in row-major order
http://www.bom.gov.au/fwo/IDT60701/IDT60701.95954.json